sensor_id;sensor_type;location;lat;lon;timestamp;pressure;altitude;pressure_sealevel;temperature;humidity
22311;BME280;11323;49.610;11.016;2023-03-13T00:00:03;97663.75;;;13.46;65.81
22311;BME280;11323;49.610;11.016;2023-03-13T00:05:05;97652.31;;;13.47;66.00
22311;BME280;11323;49.610;11.016;2023-03-13T00:10:06;97632.34;;;13.46;65.61
22311;BME280;11323;49.610;11.016;2023-03-13T00:15:07;97628.44;;;13.41;65.69
22311;BME280;11323;49.610;11.016;2023-03-13T00:20:08;97616.03;;;13.35;65.66
22311;BME280;11323;49.610;11.016;2023-03-13T00:25:09;97613.41;;;13.35;65.82
22311;BME280;11323;49.610;11.016;2023-03-13T00:30:10;97609.00;;;13.36;66.42
22311;BME280;11323;49.610;11.016;2023-03-13T00:35:11;97606.22;;;13.37;66.12
22311;BME280;11323;49.610;11.016;2023-03-13T00:40:12;97610.81;;;13.35;65.55
22311;BME280;11323;49.610;11.016;2023-03-13T00:45:12;97611.59;;;13.36;66.02
22311;BME280;11323;49.610;11.016;2023-03-13T00:50:13;97613.13;;;13.30;65.68
22311;BME280;11323;49.610;11.016;2023-03-13T00:55:14;97616.72;;;13.29;66.00
22311;BME280;11323;49.610;11.016;2023-03-13T01:00:15;97606.25;;;13.29;66.15
22311;BME280;11323;49.610;11.016;2023-03-13T01:05:15;97595.97;;;13.27;65.81
22311;BME280;11323;49.610;11.016;2023-03-13T01:10:16;97585.31;;;13.29;65.77
22311;BME280;11323;49.610;11.016;2023-03-13T01:15:16;97589.28;;;13.25;65.91
22311;BME280;11323;49.610;11.016;2023-03-13T01:20:18;97579.81;;;13.24;65.97
22311;BME280;11323;49.610;11.016;2023-03-13T01:25:19;97563.47;;;13.22;66.30
22311;BME280;11323;49.610;11.016;2023-03-13T01:30:20;97572.94;;;13.23;65.85
22311;BME280;11323;49.610;11.016;2023-03-13T01:35:22;97550.19;;;13.23;65.89
22311;BME280;11323;49.610;11.016;2023-03-13T01:40:23;97549.41;;;13.23;65.95
22311;BME280;11323;49.610;11.016;2023-03-13T01:51:25;97541.63;;;13.15;66.00
22311;BME280;11323;49.610;11.016;2023-03-13T01:56:32;97536.00;;;13.18;65.89
22311;BME280;11323;49.610;11.016;2023-03-13T02:01:34;97532.06;;;13.22;66.17
22311;BME280;11323;49.610;11.016;2023-03-13T02:06:40;97532.41;;;13.19;65.88
22311;BME280;11323;49.610;11.016;2023-03-13T02:11:53;97517.44;;;13.12;65.93
22311;BME280;11323;49.610;11.016;2023-03-13T02:16:56;97516.72;;;13.19;66.15
22311;BME280;11323;49.610;11.016;2023-03-13T02:22:00;97509.84;;;13.18;65.87
22311;BME280;11323;49.610;11.016;2023-03-13T02:27:03;97497.13;;;13.15;66.38
22311;BME280;11323;49.610;11.016;2023-03-13T02:32:06;97494.97;;;13.18;65.77
22311;BME280;11323;49.610;11.016;2023-03-13T02:37:07;97487.66;;;13.13;66.56
22311;BME280;11323;49.610;11.016;2023-03-13T02:42:13;97469.88;;;13.09;65.64
22311;BME280;11323;49.610;11.016;2023-03-13T02:47:20;97474.75;;;13.12;65.87
22311;BME280;11323;49.610;11.016;2023-03-13T02:52:25;97476.75;;;13.10;66.11
22311;BME280;11323;49.610;11.016;2023-03-13T02:57:27;97462.84;;;13.09;66.08
22311;BME280;11323;49.610;11.016;2023-03-13T03:02:28;97463.03;;;13.08;66.11
22311;BME280;11323;49.610;11.016;2023-03-13T03:07:28;97470.69;;;13.09;65.96
22311;BME280;11323;49.610;11.016;2023-03-13T03:12:29;97451.72;;;13.07;65.80
22311;BME280;11323;49.610;11.016;2023-03-13T03:17:30;97451.47;;;13.02;66.33
22311;BME280;11323;49.610;11.016;2023-03-13T03:22:31;97448.66;;;13.04;66.83
22311;BME280;11323;49.610;11.016;2023-03-13T03:27:31;97447.84;;;13.03;66.14
22311;BME280;11323;49.610;11.016;2023-03-13T03:32:32;97439.38;;;13.01;67.01
22311;BME280;11323;49.610;11.016;2023-03-13T03:37:33;97428.25;;;12.99;66.27
22311;BME280;11323;49.610;11.016;2023-03-13T03:42:34;97430.69;;;13.01;66.62
22311;BME280;11323;49.610;11.016;2023-03-13T03:47:35;97419.13;;;12.95;66.53
22311;BME280;11323;49.610;11.016;2023-03-13T03:52:36;97412.91;;;12.96;66.26
22311;BME280;11323;49.610;11.016;2023-03-13T03:57:37;97404.47;;;12.94;66.35
22311;BME280;11323;49.610;11.016;2023-03-13T04:02:43;97399.69;;;12.97;66.62
22311;BME280;11323;49.610;11.016;2023-03-13T04:07:43;97387.94;;;12.93;66.72
22311;BME280;11323;49.610;11.016;2023-03-13T04:12:44;97388.78;;;12.94;66.52
22311;BME280;11323;49.610;11.016;2023-03-13T04:17:45;97374.06;;;12.93;66.69
22311;BME280;11323;49.610;11.016;2023-03-13T04:22:46;97357.72;;;12.91;67.02
22311;BME280;11323;49.610;11.016;2023-03-13T04:27:48;97351.50;;;12.92;66.77
22311;BME280;11323;49.610;11.016;2023-03-13T04:32:50;97340.41;;;12.90;66.23
22311;BME280;11323;49.610;11.016;2023-03-13T04:38:05;97330.31;;;12.87;66.84
22311;BME280;11323;49.610;11.016;2023-03-13T04:43:28;97341.41;;;12.89;66.56
22311;BME280;11323;49.610;11.016;2023-03-13T04:49:04;97333.91;;;12.86;66.70
22311;BME280;11323;49.610;11.016;2023-03-13T04:54:04;97331.94;;;12.88;66.66
22311;BME280;11323;49.610;11.016;2023-03-13T04:59:15;97335.53;;;12.87;66.74
22311;BME280;11323;49.610;11.016;2023-03-13T05:04:50;97333.09;;;12.85;67.06
22311;BME280;11323;49.610;11.016;2023-03-13T05:10:17;97333.25;;;12.83;67.05
22311;BME280;11323;49.610;11.016;2023-03-13T05:15:35;97324.63;;;12.83;66.85
22311;BME280;11323;49.610;11.016;2023-03-13T05:20:47;97315.78;;;12.84;66.63
22311;BME280;11323;49.610;11.016;2023-03-13T05:26:06;97304.06;;;12.80;66.88
22311;BME280;11323;49.610;11.016;2023-03-13T05:31:32;97307.50;;;12.80;67.66
22311;BME280;11323;49.610;11.016;2023-03-13T05:36:55;97305.22;;;12.77;67.12
22311;BME280;11323;49.610;11.016;2023-03-13T05:42:27;97303.25;;;12.79;67.20
22311;BME280;11323;49.610;11.016;2023-03-13T05:47:53;97274.19;;;12.74;66.92
22311;BME280;11323;49.610;11.016;2023-03-13T05:53:06;97268.97;;;12.74;66.81
22311;BME280;11323;49.610;11.016;2023-03-13T05:58:14;97261.31;;;12.73;66.96
22311;BME280;11323;49.610;11.016;2023-03-13T06:03:23;97255.09;;;12.74;67.08
22311;BME280;11323;49.610;11.016;2023-03-13T06:08:26;97267.34;;;12.73;67.19
22311;BME280;11323;49.610;11.016;2023-03-13T06:13:27;97269.63;;;12.76;67.01
22311;BME280;11323;49.610;11.016;2023-03-13T06:18:30;97256.91;;;12.73;67.23
22311;BME280;11323;49.610;11.016;2023-03-13T06:23:31;97249.59;;;12.69;67.15
22311;BME280;11323;49.610;11.016;2023-03-13T06:28:32;97250.03;;;12.72;67.13
22311;BME280;11323;49.610;11.016;2023-03-13T06:33:33;97263.75;;;12.74;66.96
22311;BME280;11323;49.610;11.016;2023-03-13T06:38:33;97252.19;;;12.69;67.32
22311;BME280;11323;49.610;11.016;2023-03-13T06:43:34;97250.22;;;12.71;67.52
22311;BME280;11323;49.610;11.016;2023-03-13T06:48:34;97235.09;;;12.66;67.60
22311;BME280;11323;49.610;11.016;2023-03-13T06:53:34;97242.03;;;12.74;67.72
22311;BME280;11323;49.610;11.016;2023-03-13T06:58:35;97248.06;;;12.74;67.61
22311;BME280;11323;49.610;11.016;2023-03-13T07:03:36;97247.41;;;12.72;67.90
22311;BME280;11323;49.610;11.016;2023-03-13T07:08:37;97254.56;;;12.78;69.08
22311;BME280;11323;49.610;11.016;2023-03-13T07:13:38;97235.97;;;12.73;68.49
22311;BME280;11323;49.610;11.016;2023-03-13T07:18:39;97237.16;;;12.71;67.77
22311;BME280;11323;49.610;11.016;2023-03-13T07:23:46;97242.38;;;12.71;67.70
22311;BME280;11323;49.610;11.016;2023-03-13T07:28:47;97245.81;;;12.71;67.84
22311;BME280;11323;49.610;11.016;2023-03-13T07:33:47;97235.53;;;12.70;67.60
22311;BME280;11323;49.610;11.016;2023-03-13T07:38:48;97238.88;;;12.78;68.54
22311;BME280;11323;49.610;11.016;2023-03-13T07:43:49;97238.97;;;12.85;68.96
22311;BME280;11323;49.610;11.016;2023-03-13T07:48:49;97228.59;;;12.92;69.52
22311;BME280;11323;49.610;11.016;2023-03-13T07:53:54;97220.66;;;13.00;69.84
22311;BME280;11323;49.610;11.016;2023-03-13T07:58:54;97220.00;;;12.98;68.29
22311;BME280;11323;49.610;11.016;2023-03-13T08:03:55;97206.88;;;12.61;66.74
22311;BME280;11323;49.610;11.016;2023-03-13T08:08:57;97205.22;;;12.30;65.87
22311;BME280;11323;49.610;11.016;2023-03-13T08:13:58;97215.16;;;12.50;66.38
22311;BME280;11323;49.610;11.016;2023-03-13T08:18:59;97217.41;;;12.68;66.34
22311;BME280;11323;49.610;11.016;2023-03-13T08:24:03;97232.81;;;12.78;66.40
22311;BME280;11323;49.610;11.016;2023-03-13T08:29:07;97226.06;;;12.83;66.68
22311;BME280;11323;49.610;11.016;2023-03-13T08:34:10;97210.38;;;12.83;67.03
22311;BME280;11323;49.610;11.016;2023-03-13T08:39:14;97217.50;;;12.90;66.84
22311;BME280;11323;49.610;11.016;2023-03-13T08:44:17;97219.03;;;12.99;67.14
22311;BME280;11323;49.610;11.016;2023-03-13T08:49:17;97202.97;;;13.02;67.17
22311;BME280;11323;49.610;11.016;2023-03-13T08:54:19;97184.91;;;13.07;67.76
22311;BME280;11323;49.610;11.016;2023-03-13T08:59:19;97203.13;;;13.16;67.57
22311;BME280;11323;49.610;11.016;2023-03-13T09:04:19;97205.00;;;13.22;67.82
22311;BME280;11323;49.610;11.016;2023-03-13T09:09:20;97199.56;;;13.23;67.11
22311;BME280;11323;49.610;11.016;2023-03-13T09:14:24;97182.31;;;13.29;67.27
22311;BME280;11323;49.610;11.016;2023-03-13T09:19:28;97174.31;;;13.31;67.51
22311;BME280;11323;49.610;11.016;2023-03-13T09:24:29;97156.63;;;13.33;67.87
22311;BME280;11323;49.610;11.016;2023-03-13T09:29:39;97175.91;;;13.47;68.53
22311;BME280;11323;49.610;11.016;2023-03-13T09:34:45;97168.56;;;13.57;68.18
22311;BME280;11323;49.610;11.016;2023-03-13T09:40:08;97169.41;;;13.64;68.43
22311;BME280;11323;49.610;11.016;2023-03-13T09:50:33;97163.59;;;13.69;69.28
22311;BME280;11323;49.610;11.016;2023-03-13T09:55:36;97159.44;;;13.74;68.88
22311;BME280;11323;49.610;11.016;2023-03-13T10:00:39;97165.44;;;13.68;67.62
22311;BME280;11323;49.610;11.016;2023-03-13T10:05:49;97164.66;;;13.74;67.79
22311;BME280;11323;49.610;11.016;2023-03-13T10:10:54;97170.72;;;13.75;67.77
22311;BME280;11323;49.610;11.016;2023-03-13T10:16:06;97171.53;;;13.75;67.79
22311;BME280;11323;49.610;11.016;2023-03-13T10:21:23;97159.44;;;13.74;67.76
22311;BME280;11323;49.610;11.016;2023-03-13T10:26:31;97163.31;;;13.79;67.88
22311;BME280;11323;49.610;11.016;2023-03-13T10:31:34;97171.16;;;13.79;67.68
22311;BME280;11323;49.610;11.016;2023-03-13T10:36:46;97175.13;;;13.74;67.67
22311;BME280;11323;49.610;11.016;2023-03-13T10:41:49;97173.78;;;13.79;67.54
22311;BME280;11323;49.610;11.016;2023-03-13T10:46:58;97159.81;;;13.71;67.54
22311;BME280;11323;49.610;11.016;2023-03-13T10:52:02;97176.97;;;13.74;67.31
22311;BME280;11323;49.610;11.016;2023-03-13T10:57:27;97167.47;;;13.73;67.74
22311;BME280;11323;49.610;11.016;2023-03-13T11:02:36;97163.88;;;13.74;67.30
22311;BME280;11323;49.610;11.016;2023-03-13T11:07:37;97162.03;;;13.74;66.72
22311;BME280;11323;49.610;11.016;2023-03-13T11:12:48;97133.88;;;13.77;67.12
22311;BME280;11323;49.610;11.016;2023-03-13T11:18:05;97126.91;;;13.84;67.22
22311;BME280;11323;49.610;11.016;2023-03-13T11:23:23;97122.69;;;13.89;67.02
22311;BME280;11323;49.610;11.016;2023-03-13T11:28:35;97119.50;;;13.94;67.08
22311;BME280;11323;49.610;11.016;2023-03-13T11:33:52;97129.78;;;13.96;67.34
22311;BME280;11323;49.610;11.016;2023-03-13T11:44:23;97117.69;;;13.95;66.92
22311;BME280;11323;49.610;11.016;2023-03-13T12:05:48;97093.50;;;13.93;67.12
22311;BME280;11323;49.610;11.016;2023-03-13T12:11:03;97090.69;;;13.94;66.72
22311;BME280;11323;49.610;11.016;2023-03-13T12:16:11;97072.38;;;13.94;66.66
22311;BME280;11323;49.610;11.016;2023-03-13T12:21:35;97060.47;;;13.98;66.48
22311;BME280;11323;49.610;11.016;2023-03-13T12:26:41;97038.53;;;13.99;66.51
22311;BME280;11323;49.610;11.016;2023-03-13T12:32:03;97033.53;;;14.04;66.79
22311;BME280;11323;49.610;11.016;2023-03-13T12:37:49;97007.53;;;14.10;66.60
22311;BME280;11323;49.610;11.016;2023-03-13T12:43:13;97000.91;;;14.14;66.99
22311;BME280;11323;49.610;11.016;2023-03-13T12:48:34;96999.72;;;14.16;66.79
22311;BME280;11323;49.610;11.016;2023-03-13T12:54:11;96971.31;;;14.20;66.97
22311;BME280;11323;49.610;11.016;2023-03-13T12:59:41;96961.81;;;14.19;66.97
22311;BME280;11323;49.610;11.016;2023-03-13T13:04:45;96960.44;;;14.23;66.68
22311;BME280;11323;49.610;11.016;2023-03-13T13:10:16;96948.34;;;14.22;66.64
22311;BME280;11323;49.610;11.016;2023-03-13T13:15:26;96920.69;;;14.13;67.00
22311;BME280;11323;49.610;11.016;2023-03-13T13:20:49;96931.63;;;14.23;66.78
22311;BME280;11323;49.610;11.016;2023-03-13T13:36:53;96885.41;;;14.09;66.42
22311;BME280;11323;49.610;11.016;2023-03-13T13:41:53;96876.34;;;14.04;66.70
22311;BME280;11323;49.610;11.016;2023-03-13T13:46:55;96878.97;;;14.04;66.20
22311;BME280;11323;49.610;11.016;2023-03-13T13:57:08;96869.28;;;14.05;66.21
22311;BME280;11323;49.610;11.016;2023-03-13T14:02:19;96851.78;;;14.05;66.21
22311;BME280;11323;49.610;11.016;2023-03-13T14:07:27;96832.44;;;14.07;66.63
22311;BME280;11323;49.610;11.016;2023-03-13T14:12:36;96829.81;;;14.07;66.13
22311;BME280;11323;49.610;11.016;2023-03-13T14:17:42;96827.19;;;14.07;66.10
22311;BME280;11323;49.610;11.016;2023-03-13T14:22:47;96806.22;;;14.07;66.12
22311;BME280;11323;49.610;11.016;2023-03-13T14:27:50;96801.00;;;14.07;66.59
22311;BME280;11323;49.610;11.016;2023-03-13T14:32:51;96805.19;;;14.08;66.20
22311;BME280;11323;49.610;11.016;2023-03-13T14:37:52;96786.88;;;14.08;66.05
22311;BME280;11323;49.610;11.016;2023-03-13T14:43:00;96777.41;;;14.07;66.17
22311;BME280;11323;49.610;11.016;2023-03-13T14:48:22;96760.25;;;14.04;66.13
22311;BME280;11323;49.610;11.016;2023-03-13T14:53:23;96760.25;;;14.04;66.20
22311;BME280;11323;49.610;11.016;2023-03-13T14:58:29;96736.91;;;14.02;66.16
22311;BME280;11323;49.610;11.016;2023-03-13T15:03:31;96726.03;;;14.05;65.88
22311;BME280;11323;49.610;11.016;2023-03-13T15:08:37;96707.47;;;14.07;66.13
22311;BME280;11323;49.610;11.016;2023-03-13T15:13:38;96690.53;;;14.10;66.20
22311;BME280;11323;49.610;11.016;2023-03-13T15:18:38;96669.41;;;14.11;66.70
22311;BME280;11323;49.610;11.016;2023-03-13T15:23:39;96656.09;;;14.13;66.67
22311;BME280;11323;49.610;11.016;2023-03-13T15:28:40;96636.13;;;14.12;66.61
22311;BME280;11323;49.610;11.016;2023-03-13T15:33:41;96614.16;;;14.13;66.50
22311;BME280;11323;49.610;11.016;2023-03-13T15:38:42;96610.72;;;14.19;66.59
22311;BME280;11323;49.610;11.016;2023-03-13T15:43:43;96592.59;;;14.17;66.67
22311;BME280;11323;49.610;11.016;2023-03-13T15:48:43;96571.63;;;14.17;66.70
22311;BME280;11323;49.610;11.016;2023-03-13T15:53:43;96567.22;;;14.11;66.40
22311;BME280;11323;49.610;11.016;2023-03-13T15:58:46;96560.38;;;14.17;66.66
22311;BME280;11323;49.610;11.016;2023-03-13T16:03:47;96546.84;;;14.13;66.50
22311;BME280;11323;49.610;11.016;2023-03-13T16:08:47;96538.59;;;14.16;66.55
22311;BME280;11323;49.610;11.016;2023-03-13T16:13:47;96534.56;;;14.14;66.37
22311;BME280;11323;49.610;11.016;2023-03-13T16:18:49;96537.78;;;14.16;66.23
22311;BME280;11323;49.610;11.016;2023-03-13T16:23:50;96516.00;;;14.15;66.30
22311;BME280;11323;49.610;11.016;2023-03-13T16:28:51;96499.50;;;14.15;66.22
22311;BME280;11323;49.610;11.016;2023-03-13T16:33:53;96501.72;;;14.18;66.68
22311;BME280;11323;49.610;11.016;2023-03-13T16:38:54;96502.28;;;14.20;66.58
22311;BME280;11323;49.610;11.016;2023-03-13T16:43:55;96491.81;;;14.20;66.64
22311;BME280;11323;49.610;11.016;2023-03-13T16:48:56;96479.53;;;14.20;66.23
22311;BME280;11323;49.610;11.016;2023-03-13T16:53:58;96474.66;;;14.24;66.37
22311;BME280;11323;49.610;11.016;2023-03-13T16:59:05;96485.56;;;14.21;66.35
22311;BME280;11323;49.610;11.016;2023-03-13T17:04:06;96484.94;;;14.26;66.23
22311;BME280;11323;49.610;11.016;2023-03-13T17:09:13;96463.22;;;14.18;66.64
22311;BME280;11323;49.610;11.016;2023-03-13T17:14:14;96482.53;;;14.24;66.39
22311;BME280;11323;49.610;11.016;2023-03-13T17:19:14;96473.06;;;14.23;66.30
22311;BME280;11323;49.610;11.016;2023-03-13T17:24:16;96453.09;;;14.22;66.45
22311;BME280;11323;49.610;11.016;2023-03-13T17:29:17;96443.81;;;14.26;66.48
22311;BME280;11323;49.610;11.016;2023-03-13T17:34:18;96430.47;;;14.34;67.40
22311;BME280;11323;49.610;11.016;2023-03-13T17:39:19;96430.22;;;14.43;67.93
22311;BME280;11323;49.610;11.016;2023-03-13T17:44:20;96422.94;;;14.45;68.56
22311;BME280;11323;49.610;11.016;2023-03-13T17:49:20;96410.19;;;14.55;68.52
22311;BME280;11323;49.610;11.016;2023-03-13T17:54:21;96396.84;;;14.63;68.61
22311;BME280;11323;49.610;11.016;2023-03-13T17:59:21;96386.53;;;14.69;68.85
22311;BME280;11323;49.610;11.016;2023-03-13T18:04:21;96391.94;;;14.74;69.32
22311;BME280;11323;49.610;11.016;2023-03-13T18:09:22;96368.50;;;14.79;69.75
22311;BME280;11323;49.610;11.016;2023-03-13T18:14:22;96370.69;;;14.82;69.38
22311;BME280;11323;49.610;11.016;2023-03-13T18:19:24;96353.50;;;14.86;69.35
22311;BME280;11323;49.610;11.016;2023-03-13T18:24:25;96344.34;;;14.95;69.54
22311;BME280;11323;49.610;11.016;2023-03-13T18:29:25;96334.88;;;14.94;69.34
22311;BME280;11323;49.610;11.016;2023-03-13T18:34:26;96322.91;;;14.98;69.15
22311;BME280;11323;49.610;11.016;2023-03-13T18:39:27;96308.00;;;14.99;69.06
22311;BME280;11323;49.610;11.016;2023-03-13T18:44:29;96284.59;;;14.97;68.92
22311;BME280;11323;49.610;11.016;2023-03-13T18:49:35;96278.72;;;15.02;68.60
22311;BME280;11323;49.610;11.016;2023-03-13T18:54:41;96268.41;;;15.01;68.57
22311;BME280;11323;49.610;11.016;2023-03-13T18:59:48;96317.53;;;14.93;68.30
22311;BME280;11323;49.610;11.016;2023-03-13T19:04:51;96312.28;;;14.93;68.19
22311;BME280;11323;49.610;11.016;2023-03-13T19:09:53;96283.84;;;14.90;67.66
22311;BME280;11323;49.610;11.016;2023-03-13T19:14:53;96341.72;;;14.95;67.55
22311;BME280;11323;49.610;11.016;2023-03-13T19:19:54;96476.06;;;14.97;67.50
22311;BME280;11323;49.610;11.016;2023-03-13T19:24:57;96397.97;;;15.00;67.41
22311;BME280;11323;49.610;11.016;2023-03-13T19:29:58;96400.41;;;15.01;67.34
22311;BME280;11323;49.610;11.016;2023-03-13T19:34:58;96402.31;;;15.12;67.59
22311;BME280;11323;49.610;11.016;2023-03-13T19:39:58;96408.13;;;15.14;68.04
22311;BME280;11323;49.610;11.016;2023-03-13T19:44:59;96438.72;;;15.27;68.35
22311;BME280;11323;49.610;11.016;2023-03-13T19:49:59;96485.72;;;15.29;67.95
22311;BME280;11323;49.610;11.016;2023-03-13T19:54:59;96333.81;;;15.02;68.33
22311;BME280;11323;49.610;11.016;2023-03-13T20:00:03;96334.41;;;14.97;68.13
22311;BME280;11323;49.610;11.016;2023-03-13T20:05:12;96376.63;;;15.14;68.05
22311;BME280;11323;49.610;11.016;2023-03-13T20:10:13;96414.13;;;15.22;67.36
22311;BME280;11323;49.610;11.016;2023-03-13T20:15:13;96478.28;;;15.26;67.22
22311;BME280;11323;49.610;11.016;2023-03-13T20:20:14;96481.84;;;15.32;67.98
22311;BME280;11323;49.610;11.016;2023-03-13T20:25:15;96519.78;;;15.36;67.39
22311;BME280;11323;49.610;11.016;2023-03-13T20:30:15;96525.47;;;15.33;67.62
22311;BME280;11323;49.610;11.016;2023-03-13T20:35:16;96502.84;;;15.32;67.49
22311;BME280;11323;49.610;11.016;2023-03-13T20:40:16;96491.09;;;15.41;67.40
22311;BME280;11323;49.610;11.016;2023-03-13T20:45:17;96459.59;;;15.41;67.35
22311;BME280;11323;49.610;11.016;2023-03-13T20:50:17;96471.31;;;15.38;67.37
22311;BME280;11323;49.610;11.016;2023-03-13T20:55:18;96447.31;;;15.35;67.44
22311;BME280;11323;49.610;11.016;2023-03-13T21:00:18;96450.25;;;15.45;67.57
22311;BME280;11323;49.610;11.016;2023-03-13T21:05:19;96441.34;;;15.46;67.35
22311;BME280;11323;49.610;11.016;2023-03-13T21:10:19;96423.28;;;15.38;67.54
22311;BME280;11323;49.610;11.016;2023-03-13T21:15:20;96498.25;;;15.52;67.44
22311;BME280;11323;49.610;11.016;2023-03-13T21:20:21;96521.44;;;15.55;67.60
22311;BME280;11323;49.610;11.016;2023-03-13T21:25:22;96529.31;;;15.55;67.45
22311;BME280;11323;49.610;11.016;2023-03-13T21:30:23;96556.59;;;15.54;67.52
22311;BME280;11323;49.610;11.016;2023-03-13T21:35:24;96569.28;;;15.57;67.52
22311;BME280;11323;49.610;11.016;2023-03-13T21:40:24;96569.28;;;15.57;67.42
22311;BME280;11323;49.610;11.016;2023-03-13T21:45:25;96605.25;;;15.57;67.37
22311;BME280;11323;49.610;11.016;2023-03-13T21:50:26;96609.31;;;15.53;67.23
22311;BME280;11323;49.610;11.016;2023-03-13T21:55:26;96629.53;;;15.52;67.45
22311;BME280;11323;49.610;11.016;2023-03-13T22:00:28;96620.78;;;15.58;67.48
22311;BME280;11323;49.610;11.016;2023-03-13T22:05:28;96571.31;;;15.55;67.45
22311;BME280;11323;49.610;11.016;2023-03-13T22:10:29;96482.88;;;15.56;67.64
22311;BME280;11323;49.610;11.016;2023-03-13T22:15:30;96504.66;;;15.56;67.57
22311;BME280;11323;49.610;11.016;2023-03-13T22:20:30;96517.78;;;15.56;66.92
22311;BME280;11323;49.610;11.016;2023-03-13T22:25:31;96523.28;;;15.55;67.28
22311;BME280;11323;49.610;11.016;2023-03-13T22:30:32;96556.75;;;15.59;67.26
22311;BME280;11323;49.610;11.016;2023-03-13T22:35:33;96540.63;;;15.56;67.20
22311;BME280;11323;49.610;11.016;2023-03-13T22:40:33;96543.09;;;15.51;64.96
22311;BME280;11323;49.610;11.016;2023-03-13T22:45:34;96518.94;;;15.42;65.44
22311;BME280;11323;49.610;11.016;2023-03-13T22:50:35;96470.50;;;15.38;65.65
22311;BME280;11323;49.610;11.016;2023-03-13T22:55:35;96415.22;;;15.33;65.85
22311;BME280;11323;49.610;11.016;2023-03-13T23:00:36;96397.88;;;15.32;65.80
22311;BME280;11323;49.610;11.016;2023-03-13T23:05:38;96396.34;;;15.24;65.84
22311;BME280;11323;49.610;11.016;2023-03-13T23:10:45;96366.09;;;15.21;65.91
22311;BME280;11323;49.610;11.016;2023-03-13T23:15:45;96337.44;;;15.20;66.00
22311;BME280;11323;49.610;11.016;2023-03-13T23:20:46;96324.56;;;15.18;66.04
22311;BME280;11323;49.610;11.016;2023-03-13T23:25:46;96339.91;;;15.14;66.25
22311;BME280;11323;49.610;11.016;2023-03-13T23:30:46;96356.09;;;15.11;66.32
22311;BME280;11323;49.610;11.016;2023-03-13T23:35:47;96365.19;;;15.09;66.50
22311;BME280;11323;49.610;11.016;2023-03-13T23:40:47;96364.63;;;15.07;66.46
22311;BME280;11323;49.610;11.016;2023-03-13T23:45:47;96347.47;;;15.04;66.50
22311;BME280;11323;49.610;11.016;2023-03-13T23:50:48;96356.81;;;15.00;66.53
22311;BME280;11323;49.610;11.016;2023-03-13T23:55:56;96375.59;;;14.97;66.68
